Terminal Aerodrome Forecast
Issued by NWS Mt. Holly, NJ

Home | Current Version | Previous Version | Text Only | Print | Product List | Glossary On
Versions: 1 2 3 4 5 6 7 8 9 10 11 12 13 14 15 16 17 18 19 20 21 22 23 24 25 26 27 28 29 30 31 32 33 34 35 36 37 38 39 40 41 42 43 44 45 46 47 48 49 50
895
FTAK31 PANC 042332
TAFABE
TAF
PABE 042332Z 0500/0524 14011KT P6SM VCSH SCT025 BKN040
     FM050600 13005KT P6SM BKN120
     FM051300 VRB04KT 1/2SM FG VV002
     FM052000 02011KT P6SM SCT030 BKN060=

USA.gov is the U.S. government's official web portal to all federal, state and local government web resources and services.